Time;durP1;ratioP1;P1;durP2;ratioP2;P2;SDS_P1;SDS_P2;PMS_P1;PMS_P2;Temp;Humidity;BMP_temperature;BMP_pressure;BME280_temperature;BME280_humidity;BME280_pressure;Samples;Min_cycle;Max_cycle;Signal;HPM_P1;HPM_P2
2021/03/14 00:01:03;;;;;;;2.50;0.50;;;17.60;49.00;;;;;;5049172;28;20033;-62
2021/03/14 00:03:29;;;;;;;2.55;0.52;;;17.60;49.00;;;;;;5034550;28;20103;-63
2021/03/14 00:05:54;;;;;;;1.50;0.50;;;17.60;48.90;;;;;;5034975;28;20037;-63
2021/03/14 00:08:22;;;;;;;2.63;0.60;;;17.60;48.90;;;;;;5039534;28;20041;-57
2021/03/14 00:10:57;;;;;;;1.48;0.60;;;17.60;48.90;;;;;;5047782;28;20673;-61
2021/03/14 00:13:24;;;;;;;2.03;1.15;;;17.60;48.80;;;;;;5039087;28;20507;-64
2021/03/14 00:15:49;;;;;;;1.65;0.57;;;17.60;48.80;;;;;;5039855;28;20041;-64
2021/03/14 00:18:16;;;;;;;1.70;0.50;;;17.60;48.70;;;;;;5071742;23;20028;-63
2021/03/14 00:20:41;;;;;;;1.67;0.57;;;17.60;48.80;;;;;;4990233;28;20027;-65
2021/03/14 00:23:07;;;;;;;1.58;0.40;;;17.60;48.80;;;;;;5004822;28;20171;-65
2021/03/14 00:25:32;;;;;;;0.93;0.50;;;17.60;48.70;;;;;;5021779;28;20680;-65
2021/03/14 00:27:58;;;;;;;1.10;0.40;;;17.70;48.70;;;;;;5022969;28;20033;-65
2021/03/14 00:30:24;;;;;;;1.77;0.60;;;17.60;48.70;;;;;;5012035;28;20049;-65
2021/03/14 00:32:50;;;;;;;3.53;0.50;;;17.60;48.60;;;;;;5015394;28;20132;-64
2021/03/14 00:35:16;;;;;;;0.98;0.65;;;17.60;48.60;;;;;;5008456;28;20034;-63
2021/03/14 00:37:42;;;;;;;0.88;0.30;;;17.60;48.50;;;;;;5015991;28;20076;-65
2021/03/14 00:40:08;;;;;;;0.50;0.20;;;17.70;48.50;;;;;;5011206;28;20125;-64
2021/03/14 00:42:34;;;;;;;1.33;0.68;;;17.70;48.40;;;;;;5013464;28;20463;-65
2021/03/14 00:45:00;;;;;;;0.95;0.40;;;17.70;48.40;;;;;;5013434;28;20396;-64
2021/03/14 00:47:25;;;;;;;1.95;0.70;;;17.70;48.40;;;;;;5010959;28;20109;-67
2021/03/14 00:49:51;;;;;;;1.23;0.57;;;17.60;48.40;;;;;;5015790;28;20033;-65
2021/03/14 00:52:16;;;;;;;1.05;0.68;;;17.60;48.40;;;;;;4997869;28;20045;-64
2021/03/14 00:54:42;;;;;;;1.35;0.60;;;17.60;48.50;;;;;;5015125;28;20042;-67
2021/03/14 00:57:07;;;;;;;1.45;0.40;;;17.60;48.60;;;;;;5012926;28;20065;-64
2021/03/14 00:59:33;;;;;;;1.38;0.45;;;17.60;48.60;;;;;;5012268;28;20116;-66
2021/03/14 01:01:58;;;;;;;1.45;0.75;;;17.60;48.60;;;;;;5013534;28;20038;-65
2021/03/14 01:04:24;;;;;;;1.70;0.47;;;17.60;48.70;;;;;;5014300;28;20096;-66
2021/03/14 01:06:49;;;;;;;0.55;0.50;;;17.60;48.80;;;;;;5012590;28;20077;-65
2021/03/14 01:09:15;;;;;;;2.20;0.65;;;17.60;48.80;;;;;;5017768;28;20034;-65
2021/03/14 01:11:40;;;;;;;0.65;0.30;;;17.60;48.80;;;;;;5004661;28;20045;-65
2021/03/14 01:14:06;;;;;;;1.23;0.35;;;17.60;48.90;;;;;;4997987;28;20029;-66
2021/03/14 01:16:31;;;;;;;2.80;0.55;;;17.60;48.80;;;;;;5015150;28;20714;-65
2021/03/14 01:18:57;;;;;;;1.05;0.40;;;17.60;48.80;;;;;;5012366;28;20603;-66
2021/03/14 01:21:22;;;;;;;1.60;0.52;;;17.60;48.80;;;;;;5010752;28;20384;-65
2021/03/14 01:23:48;;;;;;;1.02;0.50;;;17.60;48.80;;;;;;5014300;28;20624;-66
2021/03/14 01:26:13;;;;;;;1.55;0.40;;;17.60;48.80;;;;;;5016801;28;20034;-65
2021/03/14 01:28:39;;;;;;;1.05;0.50;;;17.60;48.70;;;;;;5017995;28;20045;-66
2021/03/14 01:31:04;;;;;;;0.95;0.40;;;17.60;48.70;;;;;;5015637;28;20065;-65
2021/03/14 01:33:30;;;;;;;0.73;0.40;;;17.60;48.60;;;;;;5013178;28;20205;-65
2021/03/14 01:35:55;;;;;;;0.60;0.38;;;17.60;48.60;;;;;;5018167;28;20408;-64
2021/03/14 01:38:21;;;;;;;2.47;0.70;;;17.60;48.60;;;;;;5017875;28;20063;-64
2021/03/14 01:40:46;;;;;;;1.35;0.35;;;17.60;48.60;;;;;;5012277;28;20033;-64
2021/03/14 01:43:12;;;;;;;2.05;0.57;;;17.60;48.60;;;;;;5019280;28;20033;-64
2021/03/14 01:45:38;;;;;;;1.00;0.60;;;17.60;48.60;;;;;;5016031;28;20041;-65
2021/03/14 01:48:06;;;;;;;0.70;0.32;;;17.60;48.60;;;;;;5016019;28;20064;-63
2021/03/14 01:50:31;;;;;;;1.38;0.40;;;17.60;48.60;;;;;;5014862;28;20046;-65
2021/03/14 01:52:57;;;;;;;2.22;0.40;;;17.60;48.60;;;;;;5015924;28;20382;-64
2021/03/14 01:55:23;;;;;;;1.13;0.40;;;17.60;48.70;;;;;;5017572;28;20133;-65
2021/03/14 01:57:48;;;;;;;1.58;0.50;;;17.60;48.60;;;;;;5018250;28;20259;-65
2021/03/14 02:00:16;;;;;;;0.60;0.40;;;17.60;48.60;;;;;;5015801;28;20038;-64
2021/03/14 02:02:42;;;;;;;0.65;0.28;;;17.60;48.60;;;;;;5015326;28;20042;-66
2021/03/14 02:05:09;;;;;;;0.82;0.30;;;17.60;48.70;;;;;;5014885;28;20563;-65
2021/03/14 02:07:35;;;;;;;1.33;0.47;;;17.60;48.60;;;;;;5016416;28;20045;-65
2021/03/14 02:10:01;;;;;;;1.08;0.40;;;17.60;48.70;;;;;;5015724;28;20523;-65
2021/03/14 02:12:27;;;;;;;0.57;0.30;;;17.60;48.70;;;;;;5016320;28;20049;-66
2021/03/14 02:14:56;;;;;;;3.28;0.90;;;17.60;48.60;;;;;;5006550;28;20034;-66
2021/03/14 02:17:22;;;;;;;2.08;0.57;;;17.60;48.60;;;;;;5016152;28;20034;-65
2021/03/14 02:19:57;;;;;;;0.75;0.40;;;17.60;48.60;;;;;;5021861;28;20045;-66
2021/03/14 02:22:23;;;;;;;0.80;0.40;;;17.60;48.60;;;;;;5007047;28;20113;-64
2021/03/14 02:24:53;;;;;;;2.15;0.50;;;17.60;48.60;;;;;;5009268;28;20146;-66
2021/03/14 02:27:19;;;;;;;2.50;0.70;;;17.60;48.60;;;;;;5014585;28;20042;-66
2021/03/14 02:29:44;;;;;;;1.30;0.45;;;17.50;48.60;;;;;;5016217;28;20038;-65
2021/03/14 02:32:10;;;;;;;1.27;0.50;;;17.60;48.70;;;;;;5009745;28;20084;-64
2021/03/14 02:34:39;;;;;;;0.85;0.30;;;17.50;48.60;;;;;;5010713;28;20042;-66
2021/03/14 02:37:05;;;;;;;1.83;0.52;;;17.50;48.60;;;;;;5016168;28;20585;-66
2021/03/14 02:39:31;;;;;;;0.98;0.52;;;17.60;48.60;;;;;;4994316;28;20097;-64
2021/03/14 02:41:57;;;;;;;1.08;0.50;;;17.60;48.60;;;;;;4995269;28;20056;-66
2021/03/14 02:44:28;;;;;;;1.27;0.30;;;17.60;48.60;;;;;;5013417;28;20033;-66
2021/03/14 02:46:54;;;;;;;1.88;0.45;;;17.60;48.60;;;;;;5016345;28;20515;-65
2021/03/14 02:49:20;;;;;;;0.70;0.32;;;17.60;48.60;;;;;;5016404;28;20033;-65
2021/03/14 02:51:45;;;;;;;1.40;0.47;;;17.50;49.20;;;;;;5016448;28;20037;-66
2021/03/14 02:54:11;;;;;;;1.08;0.38;;;17.50;48.50;;;;;;5014789;28;20040;-66
2021/03/14 02:56:37;;;;;;;0.50;0.40;;;17.50;48.50;;;;;;5013787;28;20054;-65
2021/03/14 02:59:02;;;;;;;1.33;0.50;;;17.50;48.50;;;;;;5019078;28;20496;-67
2021/03/14 03:01:29;;;;;;;0.63;0.40;;;17.50;48.40;;;;;;4990591;28;20053;-65
2021/03/14 03:03:59;;;;;;;0.68;0.40;;;17.60;48.40;;;;;;5005198;28;20037;-65
2021/03/14 03:06:24;;;;;;;0.65;0.30;;;17.60;48.40;;;;;;5007411;28;20045;-66
2021/03/14 03:08:50;;;;;;;1.45;0.40;;;17.60;48.30;;;;;;5016920;28;20751;-66
2021/03/14 03:11:16;;;;;;;0.50;0.30;;;17.60;48.30;;;;;;5005615;28;20516;-67
2021/03/14 03:13:41;;;;;;;1.15;0.50;;;17.60;48.10;;;;;;5016211;28;20091;-67
2021/03/14 03:16:10;;;;;;;0.85;0.43;;;17.60;48.10;;;;;;5011801;28;20046;-67
2021/03/14 03:18:36;;;;;;;0.68;0.43;;;17.60;48.20;;;;;;5023068;28;20606;-66
2021/03/14 03:21:01;;;;;;;1.30;0.40;;;17.60;48.20;;;;;;5015981;28;20029;-65
2021/03/14 03:23:27;;;;;;;0.85;0.30;;;17.60;48.40;;;;;;5014876;28;20053;-65
2021/03/14 03:25:52;;;;;;;2.35;0.63;;;17.50;48.30;;;;;;5014269;28;20026;-65
2021/03/14 03:28:18;;;;;;;1.10;0.40;;;17.50;48.50;;;;;;5014123;28;20022;-64
2021/03/14 03:30:43;;;;;;;0.75;0.40;;;17.50;48.50;;;;;;5014561;28;20045;-66
2021/03/14 03:33:09;;;;;;;0.93;0.35;;;17.50;48.60;;;;;;5013276;28;20044;-65
2021/03/14 03:35:34;;;;;;;0.90;0.40;;;17.50;48.70;;;;;;5015336;28;20121;-65
2021/03/14 03:38:00;;;;;;;2.10;0.30;;;17.50;48.80;;;;;;5006024;28;20038;-65
2021/03/14 03:40:27;;;;;;;2.00;0.45;;;17.50;48.90;;;;;;5013635;28;20025;-65
2021/03/14 03:43:22;;;;;;;1.17;0.55;;;17.50;48.90;;;;;;5013571;28;20061;-65
2021/03/14 03:45:48;;;;;;;0.77;0.40;;;17.50;48.90;;;;;;4992668;28;20092;-66
2021/03/14 03:48:16;;;;;;;0.52;0.30;;;17.50;48.90;;;;;;5015191;28;20037;-65
2021/03/14 03:50:42;;;;;;;1.40;0.40;;;17.50;49.00;;;;;;5012445;28;20483;-65
2021/03/14 03:53:08;;;;;;;0.60;0.25;;;17.50;48.90;;;;;;5011832;28;20038;-67
2021/03/14 03:55:33;;;;;;;1.13;0.40;;;17.50;48.90;;;;;;4993456;28;20038;-65
2021/03/14 03:57:59;;;;;;;1.02;0.45;;;17.50;48.80;;;;;;5016299;28;20450;-65
2021/03/14 04:00:25;;;;;;;1.27;0.30;;;17.40;48.80;;;;;;4996847;28;20103;-65
2021/03/14 04:02:50;;;;;;;0.88;0.40;;;17.50;48.80;;;;;;5011568;28;20038;-65
2021/03/14 04:05:17;;;;;;;0.77;0.30;;;17.50;48.80;;;;;;5003448;28;20038;-64
2021/03/14 04:07:44;;;;;;;1.17;0.40;;;17.50;48.80;;;;;;5009862;28;20046;-65
2021/03/14 04:10:14;;;;;;;0.57;0.22;;;17.50;48.80;;;;;;5012191;28;20787;-65
2021/03/14 04:12:41;;;;;;;2.58;0.40;;;17.50;48.80;;;;;;5016215;28;20080;-65
2021/03/14 04:15:11;;;;;;;1.02;0.47;;;17.50;48.70;;;;;;5014963;28;20747;-65
2021/03/14 04:17:37;;;;;;;0.65;0.25;;;17.50;48.60;;;;;;4990551;28;20057;-65
2021/03/14 04:20:04;;;;;;;1.10;0.50;;;17.50;48.60;;;;;;4998402;28;20041;-65
2021/03/14 04:22:31;;;;;;;2.22;0.75;;;17.60;48.50;;;;;;5012281;28;20314;-65
2021/03/14 04:24:57;;;;;;;1.10;0.82;;;17.60;48.50;;;;;;4998873;28;20037;-65
2021/03/14 04:27:22;;;;;;;0.63;0.30;;;17.60;48.40;;;;;;4997951;28;20117;-65
2021/03/14 04:29:48;;;;;;;0.55;0.45;;;17.60;48.40;;;;;;5013074;28;20026;-65
2021/03/14 04:32:13;;;;;;;1.00;0.73;;;17.60;48.30;;;;;;4986877;28;20096;-65
2021/03/14 04:34:38;;;;;;;0.90;0.50;;;17.60;48.30;;;;;;5004096;28;20040;-65
2021/03/14 04:37:05;;;;;;;1.67;0.50;;;17.60;48.20;;;;;;5003232;28;20030;-64
2021/03/14 04:39:30;;;;;;;0.80;0.52;;;17.60;48.20;;;;;;5011817;28;20108;-65
2021/03/14 04:41:56;;;;;;;1.17;0.40;;;17.60;48.00;;;;;;5014674;28;20723;-65
2021/03/14 04:44:21;;;;;;;0.68;0.30;;;17.60;47.90;;;;;;5011220;28;20045;-65
2021/03/14 04:46:47;;;;;;;1.27;0.32;;;17.60;47.90;;;;;;5009882;28;20271;-64
2021/03/14 04:49:13;;;;;;;0.65;0.52;;;17.60;47.70;;;;;;5018160;28;20029;-65
2021/03/14 04:51:42;;;;;;;0.77;0.52;;;17.60;47.70;;;;;;5014477;28;20052;-67
2021/03/14 04:54:09;;;;;;;0.77;0.30;;;17.60;47.60;;;;;;5009673;28;20037;-65
2021/03/14 04:56:35;;;;;;;0.90;0.40;;;17.60;47.70;;;;;;5016779;28;20044;-66
2021/03/14 04:59:00;;;;;;;0.40;0.30;;;17.60;47.70;;;;;;5013848;28;20030;-66
2021/03/14 05:01:26;;;;;;;0.45;0.40;;;17.60;47.60;;;;;;5013938;28;20056;-66
2021/03/14 05:03:52;;;;;;;1.13;0.50;;;17.60;47.50;;;;;;5017419;28;20037;-65
2021/03/14 05:06:18;;;;;;;1.08;0.40;;;17.60;47.50;;;;;;5011721;28;20167;-66
2021/03/14 05:08:44;;;;;;;0.60;0.30;;;17.60;47.50;;;;;;5013428;28;20873;-66
2021/03/14 05:11:09;;;;;;;0.93;0.50;;;17.60;47.70;;;;;;5013386;28;20045;-65
2021/03/14 05:13:36;;;;;;;1.10;0.45;;;17.60;47.70;;;;;;5013498;28;20044;-64
2021/03/14 05:16:02;;;;;;;0.65;0.43;;;17.50;47.70;;;;;;5003232;28;20195;-66
2021/03/14 05:18:27;;;;;;;0.57;0.32;;;17.50;47.90;;;;;;4990233;28;20499;-63
2021/03/14 05:20:53;;;;;;;0.47;0.30;;;17.50;47.90;;;;;;5012049;28;20452;-66
2021/03/14 05:23:18;;;;;;;1.35;0.47;;;17.50;48.00;;;;;;5015087;28;20103;-65
2021/03/14 05:25:44;;;;;;;1.55;0.47;;;17.40;48.00;;;;;;4997416;28;20104;-65
2021/03/14 05:28:10;;;;;;;0.50;0.50;;;17.40;48.00;;;;;;5011723;28;20109;-66
2021/03/14 05:30:35;;;;;;;0.88;0.47;;;17.40;48.00;;;;;;5002528;28;20108;-66
2021/03/14 05:33:01;;;;;;;1.05;0.47;;;17.40;48.10;;;;;;5014006;28;20112;-66
2021/03/14 05:35:27;;;;;;;0.68;0.32;;;17.40;48.10;;;;;;5011960;28;20022;-66
2021/03/14 05:37:56;;;;;;;0.82;0.20;;;17.40;48.10;;;;;;5010082;28;20049;-66
2021/03/14 05:40:23;;;;;;;0.63;0.20;;;17.40;48.80;;;;;;4995921;28;20874;-66
2021/03/14 05:42:48;;;;;;;1.05;0.43;;;17.40;48.20;;;;;;5015000;28;20033;-65
2021/03/14 05:45:15;;;;;;;0.35;0.32;;;17.40;48.30;;;;;;5007237;28;20033;-64
2021/03/14 05:47:40;;;;;;;1.33;0.43;;;17.40;48.30;;;;;;5013651;28;20045;-65
2021/03/14 05:50:08;;;;;;;0.73;0.30;;;17.40;48.40;;;;;;5009864;28;20065;-65
2021/03/14 05:52:34;;;;;;;0.20;0.20;;;17.40;48.50;;;;;;5011419;28;20049;-65
2021/03/14 05:54:59;;;;;;;0.47;0.38;;;17.40;48.60;;;;;;5010301;28;20120;-66
2021/03/14 05:57:25;;;;;;;1.00;0.45;;;17.40;48.70;;;;;;5001893;28;20088;-65
2021/03/14 05:59:51;;;;;;;0.43;0.43;;;17.40;48.70;;;;;;5012608;28;20128;-67
2021/03/14 06:02:18;;;;;;;1.27;0.63;;;17.40;48.80;;;;;;4998252;28;20037;-66
2021/03/14 06:04:44;;;;;;;0.77;0.30;;;17.40;48.80;;;;;;5012586;28;20598;-65
2021/03/14 06:07:10;;;;;;;0.50;0.40;;;17.40;48.90;;;;;;5001991;28;20046;-65
2021/03/14 06:09:35;;;;;;;0.93;0.50;;;17.40;48.80;;;;;;5006925;28;20091;-65
2021/03/14 06:12:01;;;;;;;1.65;0.50;;;17.40;48.90;;;;;;4998430;28;20026;-66
2021/03/14 06:14:26;;;;;;;0.40;0.20;;;17.40;48.80;;;;;;5010147;28;20084;-66
2021/03/14 06:16:52;;;;;;;2.20;0.50;;;17.40;48.70;;;;;;5018858;28;20037;-66
2021/03/14 06:19:18;;;;;;;1.25;0.55;;;17.40;48.70;;;;;;4988385;28;20431;-66
2021/03/14 06:21:43;;;;;;;0.45;0.30;;;17.40;48.70;;;;;;5006638;28;20030;-65
2021/03/14 06:24:10;;;;;;;0.38;0.38;;;17.40;48.60;;;;;;5012554;28;20041;-65
2021/03/14 06:26:35;;;;;;;2.38;0.50;;;17.40;48.50;;;;;;5008909;28;20045;-64
2021/03/14 06:29:16;;;;;;;0.65;0.30;;;17.40;48.50;;;;;;5016898;28;20590;-65
2021/03/14 06:31:55;;;;;;;1.05;0.50;;;17.50;48.50;;;;;;5019126;28;20109;-64
2021/03/14 06:34:35;;;;;;;0.90;0.40;;;17.40;48.50;;;;;;5008999;28;20083;-65
2021/03/14 06:37:06;;;;;;;0.60;0.43;;;17.40;48.50;;;;;;5014657;28;20044;-65
2021/03/14 06:39:32;;;;;;;0.60;0.30;;;17.40;48.40;;;;;;5016426;28;20034;-65
2021/03/14 06:41:57;;;;;;;0.73;0.35;;;17.50;48.40;;;;;;5014576;28;20471;-65
2021/03/14 06:44:25;;;;;;;0.93;0.30;;;17.40;48.30;;;;;;5018285;28;20537;-65
2021/03/14 06:46:50;;;;;;;0.55;0.30;;;17.40;48.30;;;;;;5014528;28;20132;-65
2021/03/14 06:49:17;;;;;;;0.45;0.40;;;17.40;48.30;;;;;;5015254;28;20668;-66
2021/03/14 06:51:55;;;;;;;0.30;0.20;;;17.40;48.30;;;;;;5015288;28;20045;-66
2021/03/14 06:54:27;;;;;;;1.17;0.40;;;17.40;48.30;;;;;;5012846;28;20064;-66
2021/03/14 06:57:01;;;;;;;1.02;0.40;;;17.40;48.20;;;;;;5017462;28;20033;-65
2021/03/14 06:59:27;;;;;;;0.60;0.30;;;17.40;48.20;;;;;;5016704;28;20025;-65
2021/03/14 07:02:25;;;;;;;1.25;0.40;;;17.40;48.20;;;;;;5011812;28;20034;-64
2021/03/14 07:04:51;;;;;;;0.75;0.30;;;17.40;48.20;;;;;;5007090;28;20691;-64
2021/03/14 07:07:21;;;;;;;0.70;0.28;;;17.40;48.10;;;;;;5013295;28;20034;-66
2021/03/14 07:09:51;;;;;;;1.20;0.55;;;17.40;48.10;;;;;;5023670;28;20111;-65
2021/03/14 07:12:24;;;;;;;1.58;0.38;;;17.40;48.10;;;;;;5016039;28;20095;-65
2021/03/14 07:14:50;;;;;;;1.48;0.82;;;17.40;48.00;;;;;;4993846;28;20034;-65
2021/03/14 07:17:35;;;;;;;1.08;0.38;;;17.40;48.00;;;;;;5014246;28;20049;-64
2021/03/14 07:20:08;;;;;;;1.05;0.32;;;17.40;48.00;;;;;;5014771;28;20194;-64
2021/03/14 07:22:34;;;;;;;0.85;0.50;;;17.40;48.00;;;;;;4998419;28;20057;-65
2021/03/14 07:24:59;;;;;;;0.63;0.30;;;17.50;48.00;;;;;;5019524;28;20050;-64
2021/03/14 07:27:27;;;;;;;0.90;0.55;;;17.50;47.90;;;;;;5014155;28;20026;-64
2021/03/14 07:29:53;;;;;;;0.80;0.50;;;17.40;47.90;;;;;;5014950;28;20318;-64
2021/03/14 07:32:19;;;;;;;0.82;0.43;;;17.40;47.90;;;;;;5013455;28;20056;-60
2021/03/14 07:34:45;;;;;;;1.23;0.85;;;17.50;47.90;;;;;;5018282;28;20125;-64
2021/03/14 07:37:10;;;;;;;0.40;0.30;;;17.40;47.90;;;;;;5013463;28;20049;-58
2021/03/14 07:39:36;;;;;;;0.80;0.40;;;17.50;47.90;;;;;;5013784;28;20415;-61
2021/03/14 07:42:01;;;;;;;1.25;0.50;;;17.50;47.90;;;;;;5014231;28;20103;-62
2021/03/14 07:44:27;;;;;;;2.67;0.40;;;17.50;47.90;;;;;;5016426;28;20034;-63
2021/03/14 07:46:53;;;;;;;1.60;0.57;;;17.50;47.90;;;;;;5020715;28;20113;-64
2021/03/14 07:49:20;;;;;;;3.20;0.55;;;17.50;47.90;;;;;;5019311;28;20037;-63
2021/03/14 07:51:49;;;;;;;3.75;0.40;;;17.50;48.00;;;;;;5006134;28;20033;-63
2021/03/14 07:54:44;;;;;;;5.18;0.80;;;17.50;48.10;;;;;;5010780;28;20382;-61
2021/03/14 07:57:10;;;;;;;1.80;0.57;;;17.40;48.30;;;;;;5003994;28;20037;-63
2021/03/14 07:59:35;;;;;;;5.38;0.80;;;17.40;48.50;;;;;;5012615;28;20038;-63
2021/03/14 08:02:26;;;;;;;3.35;0.60;;;17.40;49.30;;;;;;5009151;28;20030;-63
2021/03/14 08:04:56;;;;;;;5.65;0.70;;;17.40;48.90;;;;;;4997454;28;20076;-62
2021/03/14 08:07:34;;;;;;;5.50;0.70;;;17.40;49.00;;;;;;5013469;28;20045;-61
2021/03/14 08:10:00;;;;;;;1.60;0.50;;;17.40;49.10;;;;;;5006145;28;20030;-62
2021/03/14 08:12:26;;;;;;;4.13;0.70;;;17.40;49.10;;;;;;5015549;28;20455;-60
2021/03/14 08:14:53;;;;;;;1.85;0.52;;;17.50;49.00;;;;;;5013129;28;20045;-65
2021/03/14 08:17:23;;;;;;;5.40;0.70;;;17.50;49.00;;;;;;5004569;28;20073;-60
2021/03/14 08:19:50;;;;;;;3.60;0.60;;;17.50;49.00;;;;;;5005789;28;20288;-62
2021/03/14 08:22:37;;;;;;;5.00;0.40;;;17.50;49.50;;;;;;5006971;28;20034;-64
2021/03/14 08:25:20;;;;;;;3.50;0.90;;;17.50;48.70;;;;;;5006718;28;20055;-64
2021/03/14 08:27:46;;;;;;;3.08;0.60;;;17.60;48.60;;;;;;5006722;28;20026;-64
2021/03/14 08:30:31;;;;;;;5.15;0.57;;;17.60;48.30;;;;;;5008571;28;20079;-63
2021/03/14 08:33:15;;;;;;;;;;;17.60;48.10;;;;;;5006413;28;20188;-62
2021/03/14 08:35:51;;;;;;;3.70;0.77;;;17.60;48.10;;;;;;5008867;28;19910;-62
2021/03/14 08:38:27;;;;;;;4.57;0.85;;;17.60;47.90;;;;;;5013109;28;20038;-59
2021/03/14 08:41:30;;;;;;;3.70;0.80;;;17.60;47.70;;;;;;5013851;28;20026;-64
2021/03/14 08:44:01;;;;;;;2.38;0.90;;;17.60;47.70;;;;;;5011766;28;20030;-61
2021/03/14 08:46:45;;;;;;;2.65;0.70;;;17.60;47.80;;;;;;5010899;28;20026;-63
2021/03/14 08:49:11;;;;;;;3.13;1.27;;;17.60;47.90;;;;;;5010706;28;20033;-61
2021/03/14 08:51:36;;;;;;;3.30;0.80;;;17.50;47.90;;;;;;5005438;28;20026;-61
2021/03/14 08:54:02;;;;;;;2.65;0.80;;;17.50;48.10;;;;;;5004802;28;20030;-61
2021/03/14 08:56:27;;;;;;;1.58;0.68;;;17.40;48.30;;;;;;5005655;28;20041;-62
2021/03/14 08:59:09;;;;;;;2.78;0.52;;;17.40;48.50;;;;;;5004259;28;20068;-61
2021/03/14 09:01:35;;;;;;;3.22;0.95;;;17.40;48.60;;;;;;5005218;28;20057;-63
2021/03/14 09:04:20;;;;;;;4.47;1.10;;;17.30;48.70;;;;;;5004568;28;20060;-64
2021/03/14 09:06:45;;;;;;;5.07;1.30;;;17.30;48.80;;;;;;5003668;28;20029;-64
2021/03/14 09:09:12;;;;;;;3.85;1.10;;;17.30;48.80;;;;;;5002689;28;20235;-62
2021/03/14 09:11:51;;;;;;;8.63;3.85;;;17.30;48.80;;;;;;5004370;28;20041;-64
2021/03/14 09:14:27;;;;;;;11.52;4.57;;;17.30;49.20;;;;;;5004987;28;20064;-64
2021/03/14 09:17:11;;;;;;;11.00;4.47;;;17.30;49.60;;;;;;5003764;28;20041;-62
2021/03/14 09:19:37;;;;;;;13.18;5.88;;;17.40;50.00;;;;;;5003840;28;20113;-62
2021/03/14 09:22:06;;;;;;;25.48;10.50;;;17.40;50.20;;;;;;5003900;28;20180;-64
2021/03/14 09:24:39;;;;;;;26.30;11.40;;;17.40;50.50;;;;;;5004101;28;20377;-61
2021/03/14 09:27:28;;;;;;;24.85;9.77;;;17.40;50.60;;;;;;5004424;28;20034;-64
2021/03/14 09:29:57;;;;;;;24.52;9.00;;;17.40;50.50;;;;;;5004634;28;20029;-58
2021/03/14 09:32:33;;;;;;;22.25;8.55;;;17.40;50.70;;;;;;5004498;28;20045;-61
2021/03/14 09:35:17;;;;;;;22.45;8.88;;;17.30;50.70;;;;;;5005208;28;20038;-63
2021/03/14 09:37:48;;;;;;;20.48;9.10;;;17.40;50.60;;;;;;5003296;28;20038;-62
2021/03/14 09:40:20;;;;;;;17.70;7.63;;;17.40;50.50;;;;;;5004912;28;20058;-62
2021/03/14 09:42:48;;;;;;;18.67;8.18;;;17.40;50.30;;;;;;5001965;28;20034;-64
2021/03/14 09:45:18;;;;;;;19.63;7.38;;;17.40;50.90;;;;;;5003466;28;20511;-61
2021/03/14 09:47:59;;;;;;;18.35;7.35;;;17.40;50.20;;;;;;5007616;28;20041;-63
2021/03/14 09:50:25;;;;;;;21.45;7.78;;;17.40;50.00;;;;;;5007475;28;20125;-63
2021/03/14 09:52:50;;;;;;;24.13;8.63;;;17.40;49.80;;;;;;5008658;28;20112;-61
2021/03/14 09:55:28;;;;;;;12.77;6.07;;;17.40;49.70;;;;;;5007861;28;20639;-63
2021/03/14 09:57:53;;;;;;;14.43;6.63;;;17.50;49.60;;;;;;5008439;28;20504;-62
2021/03/14 10:00:30;;;;;;;14.80;6.45;;;17.50;49.50;;;;;;5008714;28;20034;-62
2021/03/14 10:03:01;;;;;;;14.00;6.20;;;17.50;49.30;;;;;;5009090;28;20544;-60
2021/03/14 10:05:27;;;;;;;11.60;5.88;;;17.50;49.30;;;;;;5008744;28;20029;-64
2021/03/14 10:07:53;;;;;;;14.13;6.13;;;17.50;49.10;;;;;;5008394;28;20092;-58
2021/03/14 10:10:19;;;;;;;12.48;5.45;;;17.50;49.10;;;;;;5009587;28;20030;-61
2021/03/14 10:12:44;;;;;;;15.18;6.18;;;17.50;49.10;;;;;;5006969;28;20069;-63
2021/03/14 10:15:11;;;;;;;11.30;5.78;;;17.50;49.00;;;;;;5008018;28;20075;-62
2021/03/14 10:17:37;;;;;;;11.63;5.90;;;17.50;49.00;;;;;;5006907;28;20810;-62
2021/03/14 10:20:03;;;;;;;12.23;5.68;;;17.50;49.60;;;;;;5006548;28;20124;-62
2021/03/14 10:22:30;;;;;;;12.50;5.38;;;17.50;49.00;;;;;;5008329;28;20080;-62
2021/03/14 10:24:55;;;;;;;11.55;5.38;;;17.40;48.90;;;;;;5008553;28;20381;-62
2021/03/14 10:27:22;;;;;;;10.65;5.57;;;17.40;48.90;;;;;;5006983;28;20095;-61
2021/03/14 10:29:54;;;;;;;12.07;5.55;;;17.40;48.90;;;;;;5006681;28;20030;-58
2021/03/14 10:32:20;;;;;;;10.13;5.40;;;17.50;48.90;;;;;;5006393;28;20041;-61
2021/03/14 10:34:51;;;;;;;12.52;5.25;;;17.40;48.80;;;;;;5007589;28;20080;-63
2021/03/14 10:37:27;;;;;;;9.73;4.65;;;17.40;48.70;;;;;;5007618;28;20041;-62
2021/03/14 10:39:57;;;;;;;10.38;4.90;;;17.40;48.80;;;;;;5006478;28;20033;-62
2021/03/14 10:42:32;;;;;;;12.10;5.35;;;17.40;48.70;;;;;;5007642;28;20476;-64
2021/03/14 10:45:02;;;;;;;;;;;17.40;48.70;;;;;;5008140;28;20026;-62
2021/03/14 10:47:28;;;;;;;10.55;4.28;;;17.40;48.70;;;;;;5006693;28;19914;-63
2021/03/14 10:50:06;;;;;;;9.27;4.43;;;17.40;48.70;;;;;;5008566;28;20022;-63
2021/03/14 10:52:31;;;;;;;8.75;4.30;;;17.40;49.00;;;;;;5008059;28;20041;-64
2021/03/14 10:54:57;;;;;;;6.43;3.78;;;17.40;49.10;;;;;;5008178;28;20030;-61
2021/03/14 10:57:22;;;;;;;7.85;3.63;;;17.40;49.30;;;;;;5007286;28;20499;-62
2021/03/14 10:59:48;;;;;;;11.68;4.70;;;17.40;49.30;;;;;;5006925;28;20080;-62
2021/03/14 11:02:16;;;;;;;8.93;3.85;;;17.40;50.00;;;;;;5007564;28;20030;-64
2021/03/14 11:04:41;;;;;;;6.80;3.13;;;17.40;49.40;;;;;;5007581;28;20037;-62
2021/03/14 11:07:25;;;;;;;8.88;4.25;;;17.40;49.50;;;;;;5006204;28;20030;-63
2021/03/14 11:10:03;;;;;;;11.38;3.65;;;17.40;49.50;;;;;;5007596;28;20042;-62
2021/03/14 11:12:33;;;;;;;6.20;3.50;;;17.40;49.50;;;;;;5005775;28;20052;-63
2021/03/14 11:14:58;;;;;;;7.43;3.60;;;17.50;49.60;;;;;;5005872;28;20112;-62
2021/03/14 11:17:28;;;;;;;6.50;3.13;;;17.40;49.50;;;;;;5005256;28;20040;-63
2021/03/14 11:19:54;;;;;;;8.38;3.60;;;17.40;49.50;;;;;;5006550;28;20041;-62
2021/03/14 11:22:19;;;;;;;7.60;3.28;;;17.40;49.60;;;;;;5005344;28;20030;-61
2021/03/14 11:24:45;;;;;;;7.70;3.00;;;17.40;49.70;;;;;;5006441;28;20493;-62
2021/03/14 11:27:11;;;;;;;9.98;3.40;;;17.40;49.70;;;;;;5006386;28;20057;-61
2021/03/14 11:29:37;;;;;;;5.70;2.78;;;17.40;49.70;;;;;;5006405;28;20535;-60
2021/03/14 11:32:04;;;;;;;7.68;2.60;;;17.40;49.70;;;;;;5006659;28;20038;-61
2021/03/14 11:34:29;;;;;;;5.07;2.75;;;17.40;49.70;;;;;;5005251;28;20050;-63
2021/03/14 11:36:55;;;;;;;6.40;2.72;;;17.50;49.60;;;;;;5005488;28;20105;-63
2021/03/14 11:39:20;;;;;;;6.28;3.03;;;17.50;49.50;;;;;;5006880;28;20026;-60
2021/03/14 11:41:46;;;;;;;7.10;2.63;;;17.50;49.40;;;;;;5006667;28;20030;-64
2021/03/14 11:44:11;;;;;;;6.47;2.33;;;17.50;49.10;;;;;;5006489;28;20045;-63
2021/03/14 11:46:37;;;;;;;7.63;2.50;;;17.50;49.20;;;;;;5006576;28;20794;-62
2021/03/14 11:49:03;;;;;;;5.80;2.88;;;17.50;49.00;;;;;;5004955;28;20543;-62
2021/03/14 11:51:28;;;;;;;7.38;2.50;;;17.50;49.00;;;;;;5006540;28;20058;-63
2021/03/14 11:53:55;;;;;;;7.80;2.50;;;17.50;48.70;;;;;;5006295;28;20113;-63
2021/03/14 11:56:22;;;;;;;6.85;2.55;;;17.60;48.30;;;;;;5005312;28;20121;-63
2021/03/14 11:58:47;;;;;;;9.25;2.72;;;17.60;48.80;;;;;;5006095;28;20022;-61
2021/03/14 12:01:13;;;;;;;6.97;2.45;;;17.60;49.00;;;;;;5006480;28;20033;-62
2021/03/14 12:03:38;;;;;;;6.85;3.15;;;17.60;48.90;;;;;;5006133;28;20069;-62
2021/03/14 12:06:04;;;;;;;8.93;3.20;;;17.60;48.90;;;;;;5006397;28;20183;-64
2021/03/14 12:08:30;;;;;;;7.30;2.70;;;17.60;48.90;;;;;;5005710;28;20060;-63
2021/03/14 12:10:55;;;;;;;8.23;3.08;;;17.60;49.10;;;;;;5006075;28;20034;-63
2021/03/14 12:13:21;;;;;;;9.25;2.97;;;17.50;49.00;;;;;;5005767;28;20777;-58
2021/03/14 12:15:46;;;;;;;8.75;3.65;;;17.50;49.20;;;;;;5006390;28;20088;-61
2021/03/14 12:18:12;;;;;;;14.30;4.60;;;17.50;49.00;;;;;;5003853;28;20040;-60
2021/03/14 12:20:38;;;;;;;10.73;5.20;;;17.50;49.10;;;;;;5003143;28;20058;-61
2021/03/14 12:23:04;;;;;;;23.27;10.40;;;17.50;49.10;;;;;;5004536;28;20026;-62
2021/03/14 12:25:29;;;;;;;22.92;11.95;;;17.50;49.50;;;;;;5003679;28;20433;-63
2021/03/14 12:27:54;;;;;;;20.70;10.77;;;17.50;49.70;;;;;;5005239;28;20033;-61
2021/03/14 12:30:26;;;;;;;22.90;10.60;;;17.50;49.50;;;;;;5005915;28;20144;-60
2021/03/14 12:32:54;;;;;;;23.00;10.85;;;17.50;49.50;;;;;;4984490;28;20793;-63
2021/03/14 12:35:20;;;;;;;24.90;10.93;;;17.50;49.40;;;;;;4988317;28;20396;-64
2021/03/14 12:37:45;;;;;;;20.58;9.02;;;17.50;49.10;;;;;;5003813;28;20045;-62
2021/03/14 12:40:11;;;;;;;34.70;13.02;;;17.50;48.80;;;;;;5005103;28;20029;-64
2021/03/14 12:42:37;;;;;;;29.13;13.30;;;17.50;49.40;;;;;;5005506;28;20046;-63
2021/03/14 12:45:03;;;;;;;25.90;12.68;;;17.50;49.50;;;;;;5005232;28;20129;-58
2021/03/14 12:47:29;;;;;;;26.88;12.48;;;17.50;49.40;;;;;;5005200;28;20056;-61
2021/03/14 12:49:56;;;;;;;22.33;11.30;;;17.50;49.40;;;;;;5005546;28;20038;-59